createdAt,value
2023-04-16T00:00:18.728Z,100716.69
2023-04-16T00:03:05.193Z,100721.97
2023-04-16T00:05:31.470Z,100719.56
2023-04-16T00:07:57.794Z,100720.25
2023-04-16T00:10:23.920Z,100732.78
2023-04-16T00:12:50.266Z,100722.09
2023-04-16T00:15:16.431Z,100723.25
2023-04-16T00:17:42.805Z,100726.66
2023-04-16T00:20:09.675Z,100718.69
2023-04-16T00:22:36.127Z,100728.38
2023-04-16T00:25:02.458Z,100727.66
2023-04-16T00:27:28.905Z,100720.56
2023-04-16T00:29:55.068Z,100729.38
2023-04-16T00:32:21.485Z,100723.56
2023-04-16T00:34:47.652Z,100721.41
2023-04-16T00:37:14.080Z,100720.81
2023-04-16T00:39:40.264Z,100719.66
2023-04-16T00:42:06.734Z,100723.97
2023-04-16T00:44:35.281Z,100719.84
2023-04-16T00:47:02.477Z,100722.56
2023-04-16T00:49:29.184Z,100731.38
2023-04-16T00:51:56.865Z,100739.97
2023-04-16T00:54:24.879Z,100738.88
2023-04-16T00:56:51.407Z,100741.13
2023-04-16T00:59:17.789Z,100739.28
2023-04-16T01:01:44.130Z,100743.38
2023-04-16T01:04:10.443Z,100743.13
2023-04-16T01:06:37.605Z,100740.34
2023-04-16T01:09:04.629Z,100737.50
2023-04-16T01:11:31.285Z,100740.91
2023-04-16T01:13:57.539Z,100737.66
2023-04-16T01:16:25.918Z,100740.91
2023-04-16T01:18:52.196Z,100743.63
2023-04-16T01:21:19.190Z,100741.63
2023-04-16T01:23:45.233Z,100746.03
2023-04-16T01:26:11.588Z,100745.78
2023-04-16T01:28:37.621Z,100746.94
2023-04-16T01:31:04.152Z,100751.78
2023-04-16T01:33:53.304Z,100742.00
2023-04-16T01:36:20.523Z,100744.38
2023-04-16T01:38:46.629Z,100744.22
2023-04-16T01:41:12.980Z,100749.19
2023-04-16T01:43:41.760Z,100742.63
2023-04-16T01:46:31.279Z,100752.59
2023-04-16T01:48:57.558Z,100746.03
2023-04-16T01:51:23.856Z,100745.03
2023-04-16T01:53:50.365Z,100744.19
2023-04-16T01:56:16.804Z,100743.06
2023-04-16T01:58:42.938Z,100749.50
2023-04-16T02:01:09.610Z,100750.03
2023-04-16T02:03:37.271Z,100748.50
2023-04-16T02:06:03.969Z,100749.50
2023-04-16T02:08:30.276Z,100753.19
2023-04-16T02:10:57.113Z,100757.06
2023-04-16T02:13:25.388Z,100749.06
2023-04-16T02:15:52.312Z,100749.94
2023-04-16T02:18:37.151Z,100753.28
2023-04-16T02:21:05.736Z,100751.25
2023-04-16T02:23:32.118Z,100756.81
2023-04-16T02:26:00.331Z,100756.97
2023-04-16T02:28:27.992Z,100762.94
2023-04-16T02:30:54.476Z,100760.63
2023-04-16T02:33:21.213Z,100766.38
2023-04-16T02:35:56.172Z,100763.81
2023-04-16T02:38:22.574Z,100758.69
2023-04-16T02:40:49.008Z,100763.84
2023-04-16T02:43:16.522Z,100762.38
2023-04-16T02:45:43.946Z,100761.53
2023-04-16T02:48:10.212Z,100756.97
2023-04-16T02:50:36.618Z,100755.72
2023-04-16T02:53:03.578Z,100762.13
2023-04-16T02:55:29.957Z,100771.41
2023-04-16T02:57:55.996Z,100768.84
2023-04-16T03:00:22.382Z,100773.97
2023-04-16T03:02:48.661Z,100769.69
2023-04-16T03:05:15.504Z,100770.97
2023-04-16T03:07:41.572Z,100768.53
2023-04-16T03:10:08.464Z,100775.81
2023-04-16T03:12:35.496Z,100778.66
2023-04-16T03:15:02.506Z,100775.09
2023-04-16T03:17:29.397Z,100781.78
2023-04-16T03:19:55.824Z,100779.09
2023-04-16T03:22:21.951Z,100784.66
2023-04-16T03:24:48.350Z,100776.25
2023-04-16T03:27:14.378Z,100781.25
2023-04-16T03:29:40.945Z,100782.53
2023-04-16T03:32:08.216Z,100786.38
2023-04-16T03:34:36.350Z,100781.81
2023-04-16T03:37:02.454Z,100788.94
2023-04-16T03:39:28.815Z,100791.38
2023-04-16T03:41:55.342Z,100798.91
2023-04-16T03:44:22.227Z,100797.75
2023-04-16T03:46:48.651Z,100801.31
2023-04-16T03:49:15.627Z,100807.59
2023-04-16T03:51:41.761Z,100799.47
2023-04-16T03:54:08.141Z,100815.72
2023-04-16T03:56:34.235Z,100817.97
2023-04-16T03:59:00.682Z,100825.97
2023-04-16T04:01:26.808Z,100824.25
2023-04-16T04:03:53.349Z,100835.22
2023-04-16T04:06:20.331Z,100833.22
2023-04-16T04:08:47.657Z,100834.78
2023-04-16T04:11:14.447Z,100843.31
2023-04-16T04:13:42.651Z,100840.50
2023-04-16T04:16:08.846Z,100848.47
2023-04-16T04:18:35.239Z,100844.78
2023-04-16T04:21:06.105Z,100850.63
2023-04-16T04:23:34.023Z,100850.31
2023-04-16T04:26:02.993Z,100857.88
2023-04-16T04:28:29.976Z,100855.53
2023-04-16T04:30:57.648Z,100856.41
2023-04-16T04:33:25.302Z,100855.53
2023-04-16T04:35:51.736Z,100869.78
2023-04-16T04:38:21.412Z,100863.94
2023-04-16T04:40:48.814Z,100866.50
2023-04-16T04:43:16.648Z,100864.50
2023-04-16T04:45:43.768Z,100854.09
2023-04-16T04:48:10.507Z,100869.50
2023-04-16T04:50:36.760Z,100871.06
2023-04-16T04:53:09.097Z,100869.47
2023-04-16T04:55:38.908Z,100870.03
2023-04-16T04:58:06.702Z,100867.63
2023-04-16T05:00:34.023Z,100873.56
2023-04-16T05:03:05.602Z,100874.84
2023-04-16T05:05:31.875Z,100882.09
2023-04-16T05:07:58.179Z,100877.94
2023-04-16T05:10:24.292Z,100886.19
2023-04-16T05:12:50.646Z,100883.75
2023-04-16T05:15:16.830Z,100885.06
2023-04-16T05:17:44.335Z,100888.03
2023-04-16T05:20:10.970Z,100891.28
2023-04-16T05:22:37.570Z,100883.41
2023-04-16T05:25:04.102Z,100884.16
2023-04-16T05:27:30.448Z,100888.88
2023-04-16T05:29:56.528Z,100889.53
2023-04-16T05:32:26.123Z,100891.66
2023-04-16T05:34:52.304Z,100892.22
2023-04-16T05:37:18.670Z,100893.63
2023-04-16T05:39:45.003Z,100898.84
2023-04-16T05:42:11.346Z,100902.97
2023-04-16T05:44:37.534Z,100910.16
2023-04-16T05:47:04.049Z,100913.50
2023-04-16T05:49:30.145Z,100911.25
2023-04-16T05:51:56.490Z,100911.00
2023-04-16T05:54:22.537Z,100907.28
2023-04-16T05:56:48.880Z,100907.84
2023-04-16T05:59:14.980Z,100914.63
2023-04-16T06:01:41.305Z,100905.69
2023-04-16T06:04:07.488Z,100913.47
2023-04-16T06:06:33.896Z,100923.97
2023-04-16T06:09:00.267Z,100928.72
2023-04-16T06:11:26.914Z,100934.28
2023-04-16T06:13:53.275Z,100941.97
2023-04-16T06:16:19.855Z,100942.28
2023-04-16T06:18:46.003Z,100943.22
2023-04-16T06:21:12.607Z,100949.09
2023-04-16T06:23:38.994Z,100951.34
2023-04-16T06:26:05.533Z,100953.78
2023-04-16T06:28:31.772Z,100957.03
2023-04-16T06:30:59.805Z,100954.41
2023-04-16T06:33:26.199Z,100949.06
2023-04-16T06:35:52.645Z,100950.84
2023-04-16T06:38:18.937Z,100959.59
2023-04-16T06:40:45.462Z,100959.00
2023-04-16T06:43:11.946Z,100957.84
2023-04-16T06:45:39.065Z,100957.28
2023-04-16T06:48:05.850Z,100949.63
2023-04-16T06:50:32.591Z,100956.38
2023-04-16T06:52:58.985Z,100963.91
2023-04-16T06:55:25.507Z,100966.38
2023-04-16T06:57:51.877Z,100963.97
2023-04-16T07:00:18.533Z,100962.38
2023-04-16T07:02:44.997Z,100970.13
2023-04-16T07:05:11.621Z,100968.34
2023-04-16T07:07:41.267Z,100976.13
2023-04-16T07:10:08.298Z,100979.00
2023-04-16T07:12:34.674Z,100975.91
2023-04-16T07:15:01.213Z,100976.59
2023-04-16T07:17:27.348Z,100983.84
2023-04-16T07:19:53.745Z,100978.41
2023-04-16T07:22:20.896Z,100977.00
2023-04-16T07:24:47.580Z,100990.94
2023-04-16T07:27:13.766Z,100982.28
2023-04-16T07:29:40.504Z,100980.09
2023-04-16T07:32:07.820Z,100986.47
2023-04-16T07:34:34.533Z,100996.22
2023-04-16T07:37:00.810Z,101002.16
2023-04-16T07:39:27.430Z,101004.53
2023-04-16T07:41:54.183Z,101001.72
2023-04-16T07:44:20.827Z,100996.66
2023-04-16T07:46:47.806Z,101001.72
2023-04-16T07:49:14.748Z,100990.13
2023-04-16T07:51:41.060Z,100996.78
2023-04-16T07:54:07.465Z,100991.75
2023-04-16T07:56:33.795Z,100999.94
2023-04-16T07:59:07.896Z,100995.22
2023-04-16T08:01:41.163Z,100997.81
2023-04-16T08:04:08.019Z,101005.97
2023-04-16T08:06:34.374Z,101002.91
2023-04-16T08:09:01.047Z,101009.22
2023-04-16T08:11:27.763Z,101014.47
2023-04-16T08:13:54.483Z,101014.13
2023-04-16T08:16:20.867Z,101009.69
2023-04-16T08:18:47.487Z,101016.66
2023-04-16T08:21:13.720Z,101014.09
2023-04-16T08:23:40.292Z,101022.31
2023-04-16T08:26:06.592Z,101019.25
2023-04-16T08:28:33.377Z,101019.22
2023-04-16T08:30:59.908Z,101026.69
2023-04-16T08:33:26.343Z,101025.16
2023-04-16T08:35:52.961Z,101024.44
2023-04-16T08:38:19.609Z,101032.38
2023-04-16T08:40:47.149Z,101031.53
2023-04-16T08:43:15.605Z,101034.25
2023-04-16T08:45:43.283Z,101039.72
2023-04-16T08:48:11.399Z,101041.22
2023-04-16T08:50:40.106Z,101046.91
2023-04-16T08:53:09.826Z,101045.50
2023-04-16T08:55:38.852Z,101039.81
2023-04-16T08:58:17.108Z,101054.09
2023-04-16T09:00:45.322Z,101050.88
2023-04-16T09:03:12.665Z,101049.19
2023-04-16T09:05:39.456Z,101057.31
2023-04-16T09:08:06.247Z,101055.94
2023-04-16T09:10:32.927Z,101062.88
2023-04-16T09:12:59.793Z,101056.63
2023-04-16T09:15:26.088Z,101065.72
2023-04-16T09:17:53.418Z,101065.03
2023-04-16T09:20:20.436Z,101065.34
2023-04-16T09:22:47.671Z,101062.41
2023-04-16T09:25:14.119Z,101063.28
2023-04-16T09:27:40.498Z,101064.22
2023-04-16T09:30:22.723Z,101059.56
2023-04-16T09:32:50.974Z,101059.44
2023-04-16T09:35:20.763Z,101065.44
2023-04-16T09:37:57.147Z,101050.31
2023-04-16T09:40:25.487Z,101065.16
2023-04-16T09:42:55.734Z,101076.19
2023-04-16T09:45:21.910Z,101069.59
2023-04-16T09:47:48.322Z,101072.25
2023-04-16T09:50:18.190Z,101071.84
2023-04-16T09:52:48.557Z,101067.50
2023-04-16T09:55:14.790Z,101076.31
2023-04-16T09:57:41.201Z,101069.88
2023-04-16T10:00:09.390Z,101073.09
2023-04-16T10:02:40.892Z,101086.88
2023-04-16T10:05:07.519Z,101077.69
2023-04-16T10:07:35.818Z,101075.91
2023-04-16T10:10:03.134Z,101077.69
2023-04-16T10:12:31.902Z,101090.72
2023-04-16T10:14:58.087Z,101084.06
2023-04-16T10:17:26.632Z,101081.78
2023-04-16T10:19:54.382Z,101089.06
2023-04-16T10:22:20.988Z,101093.47
2023-04-16T10:24:49.090Z,101093.06
2023-04-16T10:27:16.563Z,101096.41
2023-04-16T10:29:43.437Z,101094.75
2023-04-16T10:32:10.316Z,101095.41
2023-04-16T10:34:36.576Z,101099.16
2023-04-16T10:37:03.075Z,101094.53
2023-04-16T10:39:29.369Z,101094.44
2023-04-16T10:42:09.874Z,101098.47
2023-04-16T10:44:36.324Z,101100.78
2023-04-16T10:47:09.416Z,101105.47
2023-04-16T10:49:35.755Z,101108.31
2023-04-16T10:52:17.819Z,101110.25
2023-04-16T10:54:46.167Z,101104.53
2023-04-16T10:57:17.201Z,101113.66
2023-04-16T10:59:43.964Z,101114.03
2023-04-16T11:02:16.902Z,101114.81
2023-04-16T11:04:45.449Z,101113.31
2023-04-16T11:07:17.057Z,101111.72
2023-04-16T11:09:49.801Z,101111.91
2023-04-16T11:12:20.761Z,101116.66
2023-04-16T11:14:50.442Z,101108.06
2023-04-16T11:17:18.226Z,101115.66
2023-04-16T11:19:44.649Z,101112.75
2023-04-16T11:22:16.561Z,101116.16
2023-04-16T11:24:46.600Z,101116.00
2023-04-16T11:27:15.328Z,101120.63
2023-04-16T11:29:42.132Z,101113.72
2023-04-16T11:32:08.891Z,101119.13
2023-04-16T11:34:44.246Z,101120.78
2023-04-16T11:37:10.977Z,101116.66
2023-04-16T11:39:57.377Z,101114.75
2023-04-16T11:42:23.993Z,101112.81
2023-04-16T11:44:55.379Z,101114.31
2023-04-16T11:47:26.089Z,101103.50
2023-04-16T11:49:52.405Z,101116.47
2023-04-16T11:52:32.097Z,101111.91
2023-04-16T11:54:59.291Z,101114.75
2023-04-16T11:57:30.819Z,101116.59
2023-04-16T12:00:01.426Z,101113.94
2023-04-16T12:02:39.952Z,101120.09
2023-04-16T12:05:30.793Z,101116.00
2023-04-16T12:07:58.757Z,101124.22
2023-04-16T12:10:26.464Z,101124.59
2023-04-16T12:12:53.102Z,101115.03
2023-04-16T12:15:19.654Z,101120.16
2023-04-16T12:17:47.084Z,101119.50
2023-04-16T12:20:18.558Z,101121.72
2023-04-16T12:23:04.052Z,101123.13
2023-04-16T12:25:30.810Z,101127.19
2023-04-16T12:27:57.818Z,101119.16
2023-04-16T12:30:29.769Z,101124.47
2023-04-16T12:33:16.079Z,101124.81
2023-04-16T12:39:15.921Z,101132.50
2023-04-16T12:41:43.342Z,101127.72
2023-04-16T12:44:21.528Z,101127.72
2023-04-16T12:46:47.919Z,101122.59
2023-04-16T12:49:15.663Z,101137.44
2023-04-16T12:51:42.192Z,101124.06
2023-04-16T12:54:08.882Z,101135.13
2023-04-16T12:56:35.643Z,101132.22
2023-04-16T12:59:02.770Z,101134.44
2023-04-16T13:01:29.005Z,101143.56
2023-04-16T13:03:56.098Z,101126.84
2023-04-16T13:06:22.685Z,101137.06
2023-04-16T13:08:49.288Z,101133.31
2023-04-16T13:11:15.782Z,101141.84
2023-04-16T13:13:42.425Z,101140.31
2023-04-16T13:16:08.938Z,101147.78
2023-04-16T13:18:38.702Z,101148.97
2023-04-16T13:21:05.215Z,101150.06
2023-04-16T13:23:32.217Z,101145.06
2023-04-16T13:25:59.588Z,101152.75
2023-04-16T13:28:26.445Z,101157.53
2023-04-16T13:30:53.360Z,101157.03
2023-04-16T13:33:24.739Z,101165.72
2023-04-16T13:35:52.402Z,101168.28
2023-04-16T13:38:19.184Z,101157.22
2023-04-16T13:40:46.209Z,101155.88
2023-04-16T13:43:13.172Z,101150.03
2023-04-16T13:45:39.540Z,101156.41
2023-04-16T13:48:06.122Z,101161.88
2023-04-16T13:50:32.399Z,101168.06
2023-04-16T13:52:59.175Z,101162.06
2023-04-16T13:55:25.766Z,101160.38
2023-04-16T13:57:52.641Z,101155.63
2023-04-16T14:00:19.793Z,101161.94
2023-04-16T14:02:48.001Z,101172.03
2023-04-16T14:05:14.905Z,101166.31
2023-04-16T14:07:41.526Z,101161.03
2023-04-16T14:10:08.210Z,101159.69
2023-04-16T14:12:36.978Z,101170.66
2023-04-16T14:15:05.836Z,101157.84
2023-04-16T14:17:32.976Z,101158.22
2023-04-16T14:19:59.314Z,101154.50
2023-04-16T14:22:26.099Z,101147.72
2023-04-16T14:24:52.420Z,101160.63
2023-04-16T14:27:19.235Z,101153.66
2023-04-16T14:29:46.308Z,101155.13
2023-04-16T14:32:13.605Z,101149.91
2023-04-16T14:34:40.056Z,101159.09
2023-04-16T14:37:06.810Z,101159.44
2023-04-16T14:39:34.191Z,101157.59
2023-04-16T14:42:00.872Z,101159.38
2023-04-16T14:44:27.150Z,101168.28
2023-04-16T14:46:54.651Z,101157.63
2023-04-16T14:49:20.929Z,101161.63
2023-04-16T14:51:47.679Z,101162.19
2023-04-16T14:54:14.028Z,101170.38
2023-04-16T14:56:41.108Z,101163.25
2023-04-16T14:59:07.464Z,101170.41
2023-04-16T15:01:35.269Z,101162.22
2023-04-16T15:04:02.463Z,101167.06
2023-04-16T15:06:29.060Z,101165.66
2023-04-16T15:08:55.251Z,101171.28
2023-04-16T15:11:21.686Z,101167.72
2023-04-16T15:13:48.193Z,101168.41
2023-04-16T15:16:17.816Z,101172.50
2023-04-16T15:18:44.085Z,101183.84
2023-04-16T15:21:12.448Z,101179.03
2023-04-16T15:23:52.077Z,101184.19
2023-04-16T15:26:39.783Z,101191.66
2023-04-16T15:29:06.037Z,101187.00
2023-04-16T15:31:32.685Z,101186.22
2023-04-16T15:33:59.767Z,101194.06
2023-04-16T15:36:26.328Z,101187.16
2023-04-16T15:38:53.090Z,101195.66
2023-04-16T15:41:20.295Z,101185.25
2023-04-16T15:43:46.687Z,101193.63
2023-04-16T15:46:14.356Z,101194.44
2023-04-16T15:48:40.946Z,101197.69
2023-04-16T15:51:07.843Z,101192.19
2023-04-16T15:53:34.525Z,101195.28
2023-04-16T15:56:04.805Z,101200.41
2023-04-16T15:58:31.251Z,101190.69
2023-04-16T16:00:57.847Z,101203.84
2023-04-16T16:03:24.237Z,101201.13
2023-04-16T16:05:50.910Z,101202.50
2023-04-16T16:08:17.799Z,101203.50
2023-04-16T16:10:44.997Z,101197.31
2023-04-16T16:13:18.137Z,101201.28
2023-04-16T16:15:44.925Z,101207.22
2023-04-16T16:18:11.728Z,101206.19
2023-04-16T16:20:39.978Z,101204.81
2023-04-16T16:23:06.738Z,101212.66
2023-04-16T16:25:33.268Z,101209.19
2023-04-16T16:28:00.092Z,101214.31
2023-04-16T16:30:27.181Z,101209.53
2023-04-16T16:32:53.904Z,101213.41
2023-04-16T16:35:20.596Z,101222.75
2023-04-16T16:37:47.098Z,101217.31
2023-04-16T16:40:13.957Z,101228.22
2023-04-16T16:42:40.414Z,101235.06
2023-04-16T16:45:07.793Z,101225.97
2023-04-16T16:47:34.239Z,101223.94
2023-04-16T16:50:02.916Z,101234.84
2023-04-16T16:52:29.940Z,101226.44
2023-04-16T16:54:57.292Z,101234.09
2023-04-16T16:57:24.148Z,101234.94
2023-04-16T16:59:50.906Z,101234.72
2023-04-16T17:02:17.869Z,101239.63
2023-04-16T17:04:44.700Z,101238.25
2023-04-16T17:07:11.428Z,101242.84
2023-04-16T17:09:38.773Z,101254.19
2023-04-16T17:12:05.721Z,101246.34
2023-04-16T17:14:32.854Z,101252.66
2023-04-16T17:16:59.487Z,101259.09
2023-04-16T17:19:26.792Z,101246.81
2023-04-16T17:21:53.506Z,101255.13
2023-04-16T17:24:20.079Z,101261.66
2023-04-16T17:26:46.368Z,101265.56
2023-04-16T17:29:12.967Z,101267.91
2023-04-16T17:31:39.221Z,101275.22
2023-04-16T17:34:05.966Z,101278.41
2023-04-16T17:36:32.403Z,101257.19
2023-04-16T17:38:58.935Z,101271.91
2023-04-16T17:41:25.143Z,101278.66
2023-04-16T17:43:51.813Z,101268.94
2023-04-16T17:46:18.305Z,101285.28
2023-04-16T17:48:46.792Z,101275.63
2023-04-16T17:51:15.803Z,101286.28
2023-04-16T17:53:42.830Z,101288.69
2023-04-16T17:56:09.185Z,101290.16
2023-04-16T17:58:36.315Z,101299.63
2023-04-16T18:01:03.402Z,101307.78
2023-04-16T18:03:32.010Z,101300.34
2023-04-16T18:05:58.820Z,101302.66
2023-04-16T18:08:25.965Z,101308.38
2023-04-16T18:10:54.142Z,101311.84
2023-04-16T18:13:20.974Z,101312.66
2023-04-16T18:15:47.589Z,101318.28
2023-04-16T18:18:14.336Z,101312.59
2023-04-16T18:20:40.938Z,101317.63
2023-04-16T18:23:07.454Z,101317.22
2023-04-16T18:25:35.387Z,101323.53
2023-04-16T18:28:03.201Z,101328.41
2023-04-16T18:30:29.728Z,101321.28
2023-04-16T18:33:19.484Z,101325.53
2023-04-16T18:35:43.266Z,101334.63
2023-04-16T18:38:10.339Z,101329.34
2023-04-16T18:40:37.218Z,101334.78
2023-04-16T18:43:04.239Z,101334.50
2023-04-16T18:45:31.337Z,101343.09
2023-04-16T18:47:58.381Z,101341.38
2023-04-16T18:50:27.762Z,101343.94
2023-04-16T18:52:55.690Z,101334.97
2023-04-16T18:55:22.363Z,101347.41
2023-04-16T18:57:48.925Z,101350.81
2023-04-16T19:00:15.755Z,101344.09
2023-04-16T19:02:42.514Z,101350.38
2023-04-16T19:05:09.734Z,101353.09
2023-04-16T19:07:36.922Z,101353.38
2023-04-16T19:10:04.181Z,101359.84
2023-04-16T19:12:31.380Z,101351.41
2023-04-16T19:14:58.027Z,101354.84
2023-04-16T19:17:24.691Z,101355.41
2023-04-16T19:19:51.317Z,101359.41
2023-04-16T19:22:17.961Z,101355.69
2023-04-16T19:24:44.444Z,101366.13
2023-04-16T19:27:11.071Z,101365.13
2023-04-16T19:29:37.595Z,101370.28
2023-04-16T19:32:04.817Z,101372.28
2023-04-16T19:34:32.063Z,101368.84
2023-04-16T19:36:59.152Z,101357.69
2023-04-16T19:39:27.276Z,101364.41
2023-04-16T19:41:53.997Z,101368.69
2023-04-16T19:44:22.552Z,101365.97
2023-04-16T19:46:49.868Z,101365.69
2023-04-16T19:49:16.788Z,101366.56
2023-04-16T19:51:43.756Z,101365.97
2023-04-16T19:54:10.684Z,101362.69
2023-04-16T19:56:37.348Z,101367.69
2023-04-16T19:59:04.051Z,101356.84
2023-04-16T20:01:31.583Z,101375.94
2023-04-16T20:03:58.515Z,101373.53
2023-04-16T20:06:26.346Z,101385.56
2023-04-16T20:08:53.130Z,101380.53
2023-04-16T20:11:20.305Z,101381.66
2023-04-16T20:13:50.349Z,101381.06
2023-04-16T20:16:22.450Z,101384.22
2023-04-16T20:18:50.139Z,101388.34
2023-04-16T20:21:16.945Z,101384.22
2023-04-16T20:23:43.351Z,101383.78
2023-04-16T20:26:14.179Z,101380.78
2023-04-16T20:28:40.829Z,101373.50
2023-04-16T20:31:07.629Z,101374.19
2023-04-16T20:33:34.515Z,101378.19
2023-04-16T20:36:01.285Z,101379.03
2023-04-16T20:38:28.886Z,101380.06
2023-04-16T20:41:11.833Z,101381.78
2023-04-16T20:43:43.358Z,101384.03
2023-04-16T20:46:11.494Z,101384.91
2023-04-16T20:48:38.510Z,101392.50
2023-04-16T20:51:09.835Z,101385.78
2023-04-16T20:53:39.803Z,101382.75
2023-04-16T20:56:08.475Z,101367.13
2023-04-16T20:58:35.282Z,101385.09
2023-04-16T21:01:01.928Z,101390.38
2023-04-16T21:03:28.581Z,101383.38
2023-04-16T21:05:55.564Z,101390.09
2023-04-16T21:08:23.131Z,101398.38
2023-04-16T21:10:50.261Z,101392.69
2023-04-16T21:13:16.703Z,101389.16
2023-04-16T21:15:44.184Z,101392.03
2023-04-16T21:18:10.739Z,101395.59
2023-04-16T21:20:38.403Z,101390.63
2023-04-16T21:23:05.450Z,101392.47
2023-04-16T21:25:32.872Z,101390.59
2023-04-16T21:27:59.093Z,101389.41
2023-04-16T21:30:27.603Z,101392.13
2023-04-16T21:32:54.268Z,101389.84
2023-04-16T21:35:20.734Z,101386.75
2023-04-16T21:37:47.008Z,101386.03
2023-04-16T21:40:13.642Z,101383.19
2023-04-16T21:42:41.399Z,101394.59
2023-04-16T21:45:09.225Z,101393.66
2023-04-16T21:47:36.187Z,101394.66
2023-04-16T21:50:03.128Z,101392.38
2023-04-16T21:52:29.480Z,101401.88
2023-04-16T21:54:55.941Z,101398.75
2023-04-16T21:57:22.056Z,101407.78
2023-04-16T21:59:48.358Z,101409.22
2023-04-16T22:02:14.628Z,101409.41
2023-04-16T22:04:42.794Z,101412.13
2023-04-16T22:07:09.146Z,101405.56
2023-04-16T22:09:35.865Z,101409.41
2023-04-16T22:12:02.724Z,101411.84
2023-04-16T22:14:31.157Z,101404.41
2023-04-16T22:16:57.690Z,101409.69
2023-04-16T22:19:24.052Z,101412.66
2023-04-16T22:21:50.273Z,101405.75
2023-04-16T22:24:16.635Z,101414.47
2023-04-16T22:26:42.669Z,101407.78
2023-04-16T22:29:09.293Z,101417.78
2023-04-16T22:31:35.500Z,101415.34
2023-04-16T22:34:03.352Z,101411.31
2023-04-16T22:36:30.469Z,101413.28
2023-04-16T22:38:56.813Z,101408.97
2023-04-16T22:41:22.917Z,101409.41
2023-04-16T22:43:51.163Z,101409.25
2023-04-16T22:46:23.855Z,101407.44
2023-04-16T22:48:50.441Z,101415.06
2023-04-16T22:51:16.502Z,101416.91
2023-04-16T22:53:42.829Z,101412.09
2023-04-16T22:56:08.927Z,101420.81
2023-04-16T22:58:35.296Z,101421.78
2023-04-16T23:01:01.354Z,101427.09
2023-04-16T23:03:28.056Z,101414.47
2023-04-16T23:05:54.294Z,101415.16
2023-04-16T23:08:20.649Z,101415.63
2023-04-16T23:10:46.737Z,101415.47
2023-04-16T23:13:13.069Z,101410.94
2023-04-16T23:15:39.185Z,101406.03
2023-04-16T23:18:05.657Z,101408.38
2023-04-16T23:20:31.839Z,101405.53
2023-04-16T23:22:58.245Z,101404.41
2023-04-16T23:25:24.782Z,101400.72
2023-04-16T23:27:51.091Z,101404.44
2023-04-16T23:30:17.231Z,101406.16
2023-04-16T23:32:43.651Z,101412.00
2023-04-16T23:35:09.881Z,101404.78
2023-04-16T23:37:36.285Z,101408.19
2023-04-16T23:40:03.308Z,101406.06
2023-04-16T23:42:29.808Z,101409.59
2023-04-16T23:44:56.257Z,101403.31
2023-04-16T23:47:22.831Z,101403.31
2023-04-16T23:49:48.873Z,101397.50
2023-04-16T23:52:15.212Z,101401.31
2023-04-16T23:54:41.269Z,101405.75
2023-04-16T23:57:07.619Z,101403.63
2023-04-16T23:59:33.654Z,101403.06
